Time;durP1;ratioP1;P1;durP2;ratioP2;P2;SDS_P1;SDS_P2;PMS_P1;PMS_P2;Temp;Humidity;BMP_temperature;BMP_pressure;BME280_temperature;BME280_humidity;BME280_pressure;Samples;Min_cycle;Max_cycle;Signal;HPM_P1;HPM_P2
2023/06/19 00:00:15;;;;;;;7.97;7.38;;;;;;;26.53;37.42;99563.88;10384437;28;20807;-51
2023/06/19 00:05:17;;;;;;;7.75;6.97;;;;;;;26.46;37.48;99556.69;10389030;28;20048;-51
2023/06/19 00:10:19;;;;;;;7.25;6.47;;;;;;;26.43;37.79;99550.91;10383231;28;20073;-51
2023/06/19 00:15:21;;;;;;;6.20;5.70;;;;;;;26.42;37.92;99544.63;10396112;28;20053;-51
2023/06/19 00:20:23;;;;;;;6.20;5.70;;;;;;;26.39;38.33;99539.66;10386484;28;20060;-51
2023/06/19 00:25:24;;;;;;;6.95;6.35;;;;;;;26.35;38.63;99538.50;10393842;28;20076;-51
2023/06/19 00:30:26;;;;;;;6.30;5.70;;;;;;;26.32;38.54;99533.53;10386095;28;20132;-51
2023/06/19 00:35:27;;;;;;;6.28;5.68;;;;;;;26.29;38.85;99523.09;10389570;28;22198;-51
2023/06/19 00:40:32;;;;;;;6.55;6.05;;;;;;;26.25;38.79;99525.47;10381052;28;20795;-52
2023/06/19 00:45:33;;;;;;;5.88;5.40;;;;;;;26.20;39.10;99521.84;10385559;28;20057;-51
2023/06/19 00:50:37;;;;;;;6.53;6.03;;;;;;;26.14;39.61;99525.53;10403304;28;20052;-51
2023/06/19 00:55:38;;;;;;;7.03;6.35;;;;;;;26.13;39.58;99507.53;10395596;28;20759;-51
2023/06/19 01:00:40;;;;;;;7.07;6.47;;;;;;;26.05;40.25;99523.19;10393283;28;20214;-51
2023/06/19 01:05:47;;;;;;;6.78;6.07;;;;;;;26.00;40.27;99525.84;10390198;28;20653;-52
2023/06/19 01:10:56;;;;;;;8.15;6.80;;;;;;;25.97;40.52;99523.53;10397615;28;20053;-51
2023/06/19 01:15:59;;;;;;;6.85;6.25;;;;;;;25.94;40.15;99529.47;10393522;28;20140;-52
2023/06/19 01:21:15;;;;;;;6.45;5.95;;;;;;;25.89;40.52;99532.13;10392576;28;20049;-52
2023/06/19 01:26:18;;;;;;;7.15;6.30;;;;;;;25.85;40.63;99528.22;10387017;28;20049;-51
2023/06/19 01:31:31;;;;;;;6.53;5.93;;;;;;;25.79;41.07;99534.63;10392000;28;20048;-51
2023/06/19 01:36:32;;;;;;;7.07;6.38;;;;;;;25.65;40.80;99545.81;10394001;28;20060;-51
2023/06/19 01:41:35;;;;;;;6.70;6.15;;;;;;;25.45;41.93;99550.84;10381783;28;20114;-51
2023/06/19 01:46:37;;;;;;;7.63;7.03;;;;;;;25.39;43.05;99550.69;10400001;28;20509;-51
2023/06/19 01:51:39;;;;;;;7.03;6.47;;;;;;;25.26;44.83;99526.41;10394074;28;20921;-52
2023/06/19 01:56:40;;;;;;;7.10;6.50;;;;;;;25.10;45.62;99566.09;10381247;28;20061;-51
2023/06/19 02:01:41;;;;;;;7.80;7.10;;;;;;;24.88;47.02;99541.31;10391766;28;20241;-51
2023/06/19 02:06:43;;;;;;;7.45;6.75;;;;;;;24.76;48.28;99554.09;10391484;28;20209;-51
2023/06/19 02:11:44;;;;;;;7.75;7.05;;;;;;;24.29;49.56;99541.13;10386368;28;20053;-51
2023/06/19 02:16:46;;;;;;;7.47;6.78;;;;;;;24.61;48.83;99551.81;10390665;28;20080;-51
2023/06/19 02:21:47;;;;;;;7.85;7.18;;;;;;;24.64;50.17;99556.78;10389515;28;20055;-51
2023/06/19 02:26:49;;;;;;;8.13;7.38;;;;;;;24.65;50.15;99553.81;10389072;28;20854;-51
2023/06/19 02:31:51;;;;;;;7.63;7.03;;;;;;;24.69;50.13;99570.50;10389040;28;20053;-52
2023/06/19 02:36:53;;;;;;;8.32;7.53;;;;;;;24.63;49.95;99583.13;10390229;28;20289;-51
2023/06/19 02:41:54;;;;;;;7.82;7.20;;;;;;;24.50;50.65;99599.63;10389649;28;20063;-51
2023/06/19 02:46:56;;;;;;;8.25;7.55;;;;;;;24.53;49.46;99604.63;10386143;28;20835;-51
2023/06/19 02:51:57;;;;;;;8.68;8.02;;;;;;;24.51;49.66;99615.72;10382305;28;20281;-51
2023/06/19 02:56:59;;;;;;;8.52;7.72;;;;;;;24.45;50.56;99618.53;10386886;28;20777;-51
2023/06/19 03:02:01;;;;;;;8.40;7.68;;;;;;;24.40;50.52;99626.56;10386783;28;20059;-51
2023/06/19 03:07:03;;;;;;;7.18;6.68;;;;;;;24.40;49.89;99627.38;10385293;28;20053;-51
2023/06/19 03:12:04;;;;;;;8.13;7.38;;;;;;;24.41;49.68;99617.31;10382707;28;20849;-51
2023/06/19 03:17:06;;;;;;;7.85;7.25;;;;;;;24.42;49.58;99619.00;10386852;28;20048;-52
2023/06/19 03:22:07;;;;;;;7.93;7.32;;;;;;;24.44;49.17;99638.63;10384239;28;20048;-51
2023/06/19 03:27:09;;;;;;;8.65;7.65;;;;;;;24.45;48.73;99649.28;10391391;28;20145;-52
2023/06/19 03:32:11;;;;;;;6.68;6.18;;;;;;;24.41;47.36;99660.84;10384065;28;20616;-52
2023/06/19 03:37:12;;;;;;;6.85;6.18;;;;;;;24.33;47.19;99660.09;10383576;28;20045;-51
2023/06/19 03:42:14;;;;;;;6.72;6.13;;;;;;;24.29;46.93;99672.50;10385549;28;20080;-51
2023/06/19 03:47:16;;;;;;;6.30;5.70;;;;;;;24.32;46.91;99680.22;10388729;28;20049;-52
2023/06/19 03:52:17;;;;;;;5.43;5.03;;;;;;;24.26;47.49;99686.56;10388408;28;20119;-52
2023/06/19 03:57:19;;;;;;;7.60;6.82;;;;;;;24.17;47.39;99685.22;10386864;28;20127;-52
2023/06/19 04:02:20;;;;;;;7.68;6.22;;;;;;;24.15;47.58;99688.13;10393302;28;22176;-51
2023/06/19 04:07:21;;;;;;;8.00;7.30;;;;;;;24.18;47.08;99700.44;10390263;28;20675;-50
2023/06/19 04:12:23;;;;;;;8.15;7.20;;;;;;;24.12;47.62;99706.78;10386417;28;20059;-51
2023/06/19 04:17:24;;;;;;;7.65;7.03;;;;;;;24.10;47.54;99722.50;10383570;28;20780;-50
2023/06/19 04:22:26;;;;;;;8.95;7.60;;;;;;;24.02;47.73;99723.63;10386959;28;20711;-50
2023/06/19 04:27:27;;;;;;;7.25;6.65;;;;;;;23.90;47.92;99731.69;10389975;28;20139;-56
2023/06/19 04:32:29;;;;;;;7.93;7.20;;;;;;;23.80;54.26;99747.66;10393924;28;20158;-50
2023/06/19 04:37:31;;;;;;;7.00;6.40;;;;;;;23.65;54.59;99751.50;10393459;28;20052;-50
2023/06/19 04:42:32;;;;;;;6.45;5.95;;;;;;;23.59;54.20;99760.56;10389685;28;20068;-50
2023/06/19 04:47:34;;;;;;;6.05;5.55;;;;;;;23.56;54.42;99762.91;10389207;28;20049;-50
2023/06/19 04:52:52;;;;;;;6.25;5.63;;;;;;;23.63;53.84;99769.94;10391836;28;20045;-50
2023/06/19 04:57:54;;;;;;;5.32;4.90;;;;;;;23.56;53.98;99761.00;10389733;28;20053;-50
2023/06/19 05:02:59;;;;;;;5.57;5.07;;;;;;;23.62;54.08;99767.44;10385346;28;20080;-50
2023/06/19 05:08:01;;;;;;;5.78;5.35;;;;;;;23.54;54.18;99763.13;10384960;28;20046;-57
2023/06/19 05:13:03;;;;;;;5.20;4.80;;;;;;;23.51;54.51;99777.13;10363776;28;20059;-57
2023/06/19 05:18:04;;;;;;;5.22;4.80;;;;;;;23.55;53.88;99756.59;10384047;28;20130;-57
2023/06/19 05:23:06;;;;;;;5.20;4.60;;;;;;;23.57;53.41;99753.66;10373760;28;20056;-57
2023/06/19 05:28:07;;;;;;;5.78;4.68;;;;;;;23.64;53.81;99766.16;10371868;28;20504;-57
2023/06/19 05:33:09;;;;;;;5.70;5.15;;;;;;;23.59;54.12;99763.28;10380239;28;20057;-57
2023/06/19 05:38:11;;;;;;;4.70;4.30;;;;;;;23.65;53.34;99770.53;10377449;28;20090;-57
2023/06/19 05:43:13;;;;;;;4.95;4.50;;;;;;;23.63;54.30;99772.66;10377439;28;20608;-60
2023/06/19 05:48:14;;;;;;;4.53;3.70;;;;;;;23.65;54.24;99773.25;10380370;28;20049;-59
2023/06/19 05:53:16;;;;;;;6.40;4.82;;;;;;;23.63;56.06;99764.50;10377693;28;20048;-50
2023/06/19 05:58:21;;;;;;;4.30;3.97;;;;;;;23.05;57.08;99778.22;10380100;28;20858;-51
2023/06/19 06:03:23;;;;;;;6.47;3.58;;;;;;;23.44;55.29;99768.19;10379587;28;20140;-53
2023/06/19 06:08:25;;;;;;;5.63;4.32;;;;;;;23.74;55.17;99775.72;10382554;28;20051;-57
2023/06/19 06:13:27;;;;;;;4.07;3.67;;;;;;;23.86;54.37;99784.81;10380776;28;20120;-58
2023/06/19 06:18:28;;;;;;;5.07;4.25;;;;;;;23.97;54.24;99792.25;10373481;28;20060;-57
2023/06/19 06:23:29;;;;;;;3.63;3.20;;;;;;;24.02;54.28;99799.75;10372255;28;20174;-57
2023/06/19 06:28:31;;;;;;;4.00;3.70;;;;;;;24.05;54.49;99801.16;10374784;28;20127;-50
2023/06/19 06:33:33;;;;;;;4.05;3.67;;;;;;;24.10;54.48;99812.22;10373550;28;21506;-50
2023/06/19 06:38:34;;;;;;;4.43;3.78;;;;;;;24.18;54.53;99820.06;10375132;28;20115;-50
2023/06/19 06:43:36;;;;;;;3.67;3.28;;;;;;;24.27;54.58;99817.91;10374702;28;20056;-51
2023/06/19 06:48:37;;;;;;;8.18;3.17;;;;;;;24.36;54.01;99811.13;10375142;28;20052;-50
2023/06/19 06:53:39;;;;;;;3.50;3.20;;;;;;;24.40;53.72;99817.78;10379365;28;20732;-50
2023/06/19 06:58:40;;;;;;;4.30;2.78;;;;;;;24.49;53.49;99805.53;10375304;28;20082;-51
2023/06/19 07:03:43;;;;;;;2.83;2.60;;;;;;;24.63;52.64;99808.97;10377890;28;20051;-57
2023/06/19 07:08:47;;;;;;;2.92;2.72;;;;;;;24.76;52.46;99831.66;10386191;28;20052;-58
2023/06/19 07:13:49;;;;;;;2.65;2.40;;;;;;;24.97;51.85;99819.47;10377634;28;20048;-57
2023/06/19 07:18:50;;;;;;;5.22;3.47;;;;;;;25.10;51.24;99818.44;10374282;28;20397;-58
2023/06/19 07:23:54;;;;;;;3.45;3.05;;;;;;;25.18;51.15;99807.25;10380330;28;20075;-57
2023/06/19 07:28:56;;;;;;;4.15;3.25;;;;;;;25.32;51.21;99797.84;10368489;28;20056;-57
2023/06/19 07:33:57;;;;;;;3.78;2.80;;;;;;;25.39;50.85;99803.22;10364912;28;20049;-64
2023/06/19 07:38:59;;;;;;;3.67;2.75;;;;;;;25.50;49.90;99817.94;10376074;28;20512;-58
2023/06/19 07:44:00;;;;;;;2.83;2.63;;;;;;;25.57;50.00;99811.31;10373207;28;20879;-58
2023/06/19 07:49:02;;;;;;;3.75;2.88;;;;;;;25.77;49.97;99800.09;10377180;28;20052;-58
2023/06/19 07:54:04;;;;;;;3.08;2.78;;;;;;;25.88;49.38;99823.00;10374302;28;20163;-57
2023/06/19 07:59:05;;;;;;;5.03;3.08;;;;;;;25.93;48.75;99846.81;10381197;28;20563;-57
2023/06/19 08:04:07;;;;;;;3.92;2.83;;;;;;;26.10;48.46;99833.34;10386415;28;20449;-58
2023/06/19 08:09:08;;;;;;;5.43;3.13;;;;;;;26.04;48.81;99837.84;10370641;28;20045;-57
2023/06/19 08:14:10;;;;;;;5.95;3.10;;;;;;;25.95;48.66;99841.97;10386274;28;20049;-58
2023/06/19 08:19:11;;;;;;;3.42;2.53;;;;;;;26.00;49.04;99844.84;10393263;28;20063;-58
2023/06/19 08:24:13;;;;;;;4.72;2.90;;;;;;;26.08;49.08;99855.41;10370895;28;20421;-60
2023/06/19 08:29:14;;;;;;;5.80;2.80;;;;;;;26.26;48.23;99856.38;10400320;28;20164;-58
2023/06/19 08:34:16;;;;;;;3.85;2.70;;;;;;;26.46;48.50;99856.81;10382367;28;20129;-58
2023/06/19 08:39:17;;;;;;;4.75;3.05;;;;;;;26.60;47.49;99856.59;10381459;28;20119;-57
2023/06/19 08:44:19;;;;;;;2.83;2.63;;;;;;;26.60;47.72;99862.03;10385000;28;20517;-58
2023/06/19 08:49:21;;;;;;;3.83;2.90;;;;;;;26.72;48.58;99865.63;10385714;28;20053;-58
2023/06/19 08:54:22;;;;;;;5.13;3.53;;;;;;;26.89;47.20;99873.91;10380886;28;20128;-57
2023/06/19 08:59:25;;;;;;;3.75;3.45;;;;;;;26.87;47.21;99867.84;10380180;28;20222;-58
2023/06/19 09:04:27;;;;;;;5.03;3.28;;;;;;;27.06;47.86;99865.78;10391525;28;20056;-58
2023/06/19 09:09:30;;;;;;;4.68;2.80;;;;;;;27.32;46.98;99871.75;10378594;28;20084;-58
2023/06/19 09:14:33;;;;;;;3.45;2.60;;;;;;;27.41;46.70;99864.84;10386134;28;20048;-58
2023/06/19 09:19:35;;;;;;;10.70;3.13;;;;;;;27.67;45.61;99854.41;10385982;28;20064;-58
2023/06/19 09:24:38;;;;;;;3.03;2.70;;;;;;;27.73;45.75;99856.16;10379344;28;20056;-58
2023/06/19 09:29:42;;;;;;;5.82;4.13;;;;;;;27.83;45.54;99864.53;10379892;28;20132;-57
2023/06/19 09:34:43;;;;;;;3.35;3.08;;;;;;;27.89;44.65;99856.41;10381965;28;20168;-57
2023/06/19 09:39:46;;;;;;;4.70;3.40;;;;;;;27.79;45.26;99866.09;10378385;28;20584;-58
2023/06/19 09:44:49;;;;;;;3.65;3.28;;;;;;;27.95;45.29;99863.63;10386247;28;20299;-57
2023/06/19 09:49:55;;;;;;;4.25;2.55;;;;;;;28.07;44.45;99878.06;10379952;28;20155;-58
2023/06/19 09:55:00;;;;;;;3.65;3.15;;;;;;;28.11;44.50;99871.03;10382862;28;20189;-58
2023/06/19 10:00:12;;;;;;;3.42;3.15;;;;;;;28.20;44.10;99858.59;10389413;28;20101;-57
2023/06/19 10:05:14;;;;;;;;;;;;;;;28.51;43.61;99864.53;10380006;28;20131;-57
2023/06/19 10:10:24;;;;;;;4.40;2.83;;;;;;;28.65;43.37;99854.06;10368285;28;20625;-57
2023/06/19 10:15:29;;;;;;;3.92;2.88;;;;;;;29.01;42.67;99856.44;10373282;28;20219;-57
2023/06/19 10:20:38;;;;;;;4.82;3.42;;;;;;;28.88;41.43;99858.47;10379853;28;20090;-57
2023/06/19 10:25:55;;;;;;;4.10;3.28;;;;;;;28.70;41.87;99856.88;10379196;28;20037;-62
2023/06/19 10:30:57;;;;;;;3.22;2.60;;;;;;;28.71;42.58;99864.00;10383839;28;21106;-57
2023/06/19 10:36:00;;;;;;;3.42;3.13;;;;;;;28.48;42.50;99861.44;10384158;28;20472;-58
2023/06/19 10:41:02;;;;;;;3.28;2.92;;;;;;;28.37;43.53;99857.75;10379471;28;20868;-58
2023/06/19 10:46:04;;;;;;;4.18;3.30;;;;;;;28.39;43.66;99861.06;10372727;28;20509;-58
2023/06/19 10:51:07;;;;;;;3.53;2.80;;;;;;;28.33;44.01;99857.41;10381606;28;20053;-58
2023/06/19 10:56:08;;;;;;;3.75;2.70;;;;;;;28.29;44.42;99852.72;10377424;28;20580;-58
2023/06/19 11:01:10;;;;;;;3.33;3.03;;;;;;;28.16;44.57;99854.69;10376522;28;20151;-58
2023/06/19 11:06:19;;;;;;;3.72;3.20;;;;;;;27.97;44.64;99843.19;10381626;28;20583;-57
2023/06/19 11:11:21;;;;;;;2.88;2.67;;;;;;;27.93;44.98;99849.38;10373961;28;20091;-63
2023/06/19 11:16:22;;;;;;;3.58;3.25;;;;;;;27.74;45.73;99846.84;10381840;28;20186;-57
2023/06/19 11:21:37;;;;;;;3.43;3.10;;;;;;;27.66;45.60;99852.75;10373965;28;20057;-59
2023/06/19 11:26:43;;;;;;;6.32;2.88;;;;;;;27.71;45.51;99850.09;10369481;28;20522;-58
2023/06/19 11:31:46;;;;;;;4.13;3.20;;;;;;;27.69;45.12;99841.31;10381125;28;20041;-57
2023/06/19 11:36:48;;;;;;;4.75;3.28;;;;;;;27.79;45.60;99833.28;10378714;28;20211;-58
2023/06/19 11:41:51;;;;;;;2.90;2.70;;;;;;;27.86;45.05;99833.97;10374343;28;20075;-60
2023/06/19 11:47:02;;;;;;;3.72;2.75;;;;;;;27.91;43.63;99837.84;10373031;28;20068;-58
2023/06/19 11:52:04;;;;;;;3.75;3.45;;;;;;;28.03;43.17;99844.09;10377866;28;20053;-57
2023/06/19 11:57:06;;;;;;;4.18;2.58;;;;;;;28.20;42.60;99828.50;10366573;28;20055;-58
2023/06/19 12:02:08;;;;;;;2.75;2.55;;;;;;;28.45;42.87;99816.28;10374154;28;20616;-57
2023/06/19 12:07:11;;;;;;;3.42;3.13;;;;;;;28.77;41.81;99826.56;10375295;28;20404;-58
2023/06/19 12:12:12;;;;;;;3.35;3.05;;;;;;;28.99;42.08;99842.16;10374742;28;20961;-60
2023/06/19 12:17:14;;;;;;;3.25;2.70;;;;;;;29.02;42.55;99837.00;10369665;28;20049;-58
2023/06/19 12:22:15;;;;;;;4.27;2.90;;;;;;;28.96;42.61;99820.75;10369584;28;20196;-58
2023/06/19 12:27:17;;;;;;;4.22;2.88;;;;;;;29.15;42.44;99827.56;10376409;28;20547;-57
2023/06/19 12:32:20;;;;;;;5.97;3.13;;;;;;;29.35;41.75;99828.88;10367529;28;20133;-58
2023/06/19 12:37:22;;;;;;;5.18;3.17;;;;;;;29.54;41.49;99821.94;10373169;28;20087;-58
2023/06/19 12:42:24;;;;;;;3.13;2.83;;;;;;;29.51;41.10;99827.97;10367335;28;20077;-57
2023/06/19 12:47:25;;;;;;;2.90;2.70;;;;;;;29.59;40.75;99818.44;10358487;28;20060;-58
2023/06/19 12:52:27;;;;;;;4.43;3.40;;;;;;;29.70;40.41;99824.84;10361061;28;20048;-58
2023/06/19 12:57:28;;;;;;;3.78;3.42;;;;;;;29.62;40.06;99823.41;10380018;28;20045;-57
2023/06/19 13:02:31;;;;;;;4.03;3.13;;;;;;;29.44;40.41;99813.66;10382436;28;20158;-58
2023/06/19 13:07:32;;;;;;;3.10;2.55;;;;;;;29.26;41.14;99823.88;10378162;28;20053;-58
2023/06/19 13:12:34;;;;;;;2.70;2.50;;;;;;;29.25;41.09;99816.75;10386512;28;20117;-59
2023/06/19 13:17:36;;;;;;;3.30;3.10;;;;;;;29.20;40.92;99805.72;10381056;28;20053;-58
2023/06/19 13:22:37;;;;;;;2.97;2.78;;;;;;;29.18;41.21;99802.38;10382231;28;20135;-57
2023/06/19 13:27:39;;;;;;;3.03;2.80;;;;;;;29.11;41.33;99801.78;10378909;28;20057;-57
2023/06/19 13:32:40;;;;;;;3.57;2.77;;;;;;;29.11;40.61;99801.78;10377077;28;20092;-57
2023/06/19 13:37:42;;;;;;;4.60;2.57;;;;;;;28.97;40.99;99815.03;10381421;28;20072;-57
2023/06/19 13:42:43;;;;;;;2.50;2.30;;;;;;;28.98;41.07;99813.94;10383582;28;20581;-57
2023/06/19 13:47:45;;;;;;;2.30;2.00;;;;;;;28.91;40.62;99808.69;10382764;28;20227;-57
2023/06/19 13:52:47;;;;;;;2.92;2.38;;;;;;;28.90;40.20;99800.72;10383527;28;20052;-58
2023/06/19 13:57:48;;;;;;;3.28;2.50;;;;;;;28.87;40.19;99802.06;10379614;28;20797;-57
2023/06/19 14:02:50;;;;;;;5.47;2.27;;;;;;;29.01;40.13;99786.03;10384289;28;20056;-56
2023/06/19 14:07:51;;;;;;;2.35;2.08;;;;;;;29.03;39.54;99778.38;10370989;28;20049;-56
2023/06/19 14:12:53;;;;;;;2.47;2.00;;;;;;;29.00;39.95;99767.94;10374450;28;20049;-57
2023/06/19 14:17:54;;;;;;;2.63;2.33;;;;;;;28.87;38.55;99766.44;10373070;28;20095;-57
2023/06/19 14:22:56;;;;;;;3.33;2.50;;;;;;;28.80;39.01;99768.53;10372374;28;20784;-57
2023/06/19 14:27:58;;;;;;;2.57;2.10;;;;;;;28.82;38.98;99760.88;10370796;28;20136;-57
2023/06/19 14:32:59;;;;;;;2.67;1.87;;;;;;;28.85;37.78;99760.38;10376469;28;20040;-56
2023/06/19 14:38:01;;;;;;;2.77;2.37;;;;;;;28.67;37.95;99758.81;10380620;28;20630;-56
2023/06/19 14:43:02;;;;;;;2.30;1.87;;;;;;;28.72;37.65;99772.56;10373044;28;20215;-56
2023/06/19 14:48:05;;;;;;;2.43;2.23;;;;;;;28.74;37.92;99764.09;10369414;28;20736;-57
2023/06/19 14:53:06;;;;;;;3.75;1.88;;;;;;;28.87;37.19;99757.38;10376850;28;20060;-58
2023/06/19 14:58:08;;;;;;;3.78;1.80;;;;;;;28.89;36.82;99764.25;10369523;28;20844;-57
2023/06/19 15:03:09;;;;;;;2.83;1.60;;;;;;;28.88;36.77;99770.81;10376220;28;20154;-57
2023/06/19 15:08:11;;;;;;;1.90;1.60;;;;;;;28.98;36.43;99769.31;10372407;28;20475;-57
2023/06/19 15:13:12;;;;;;;2.97;2.13;;;;;;;28.97;35.79;99760.25;10373742;28;20144;-57
2023/06/19 15:18:14;;;;;;;2.60;2.10;;;;;;;28.89;35.52;99756.06;10375325;28;20839;-57
2023/06/19 15:23:16;;;;;;;3.70;2.00;;;;;;;28.84;35.24;99757.91;10371525;28;20063;-57
2023/06/19 15:28:18;;;;;;;2.97;2.25;;;;;;;28.82;35.45;99755.41;10372599;28;20782;-57
2023/06/19 15:33:22;;;;;;;2.83;2.30;;;;;;;28.73;36.34;99746.84;10369178;28;21518;-57
2023/06/19 15:38:23;;;;;;;3.57;2.27;;;;;;;28.74;36.40;99742.19;10378662;28;20057;-57
2023/06/19 15:43:28;;;;;;;2.63;2.42;;;;;;;28.63;36.12;99730.31;10364201;28;20076;-48
2023/06/19 15:48:30;;;;;;;2.67;2.47;;;;;;;28.56;36.62;99719.50;10369764;28;20072;-48
2023/06/19 15:53:31;;;;;;;2.83;1.80;;;;;;;28.60;35.92;99719.88;10376854;28;20877;-48
2023/06/19 15:58:33;;;;;;;2.42;1.88;;;;;;;28.62;35.04;99714.13;10374587;28;20066;-57
2023/06/19 16:03:34;;;;;;;2.93;1.90;;;;;;;28.70;35.72;99713.66;10375172;28;20048;-57
2023/06/19 16:08:36;;;;;;;2.47;1.83;;;;;;;28.78;36.04;99705.00;10374432;28;20144;-57
2023/06/19 16:13:39;;;;;;;2.40;1.80;;;;;;;28.79;35.09;99701.16;10375008;28;21650;-56
2023/06/19 16:18:40;;;;;;;2.28;2.08;;;;;;;28.75;35.50;99686.34;10380963;28;20288;-61
2023/06/19 16:23:42;;;;;;;3.08;2.03;;;;;;;28.75;35.60;99697.31;10379359;28;20087;-56
2023/06/19 16:28:44;;;;;;;2.97;1.87;;;;;;;28.69;35.60;99690.09;10380607;28;20061;-57
2023/06/19 16:33:45;;;;;;;2.33;2.13;;;;;;;28.63;35.98;99683.75;10362982;28;20807;-56
2023/06/19 16:38:47;;;;;;;2.80;2.57;;;;;;;28.60;35.78;99686.16;10376191;28;20065;-57
2023/06/19 16:43:49;;;;;;;3.50;2.10;;;;;;;28.60;36.46;99686.16;10385524;28;20052;-56
2023/06/19 16:48:51;;;;;;;2.67;2.20;;;;;;;28.58;36.40;99689.13;10390557;28;20048;-57
2023/06/19 16:53:52;;;;;;;3.47;2.20;;;;;;;28.57;36.67;99701.19;10380344;28;20096;-57
2023/06/19 16:58:54;;;;;;;3.35;2.08;;;;;;;28.53;37.15;99709.06;10377711;28;20191;-57
2023/06/19 17:03:55;;;;;;;2.30;2.10;;;;;;;28.49;37.73;99705.16;10377426;28;20099;-57
2023/06/19 17:08:57;;;;;;;4.05;2.63;;;;;;;28.44;38.09;99702.38;10383758;28;20088;-61
2023/06/19 17:13:58;;;;;;;3.60;2.93;;;;;;;28.39;38.27;99707.81;10381975;28;20183;-57
2023/06/19 17:19:00;;;;;;;3.25;2.00;;;;;;;28.36;38.48;99722.00;10377805;28;20048;-57
2023/06/19 17:24:04;;;;;;;3.15;2.70;;;;;;;28.34;38.84;99715.94;10380079;28;20139;-57
2023/06/19 17:29:06;;;;;;;2.73;2.43;;;;;;;28.29;39.47;99713.16;10379797;28;20056;-57
2023/06/19 17:34:08;;;;;;;4.40;2.50;;;;;;;28.24;40.04;99719.38;10379975;28;20236;-57
2023/06/19 17:39:10;;;;;;;5.63;2.83;;;;;;;28.21;39.61;99707.03;10373152;28;20773;-57
2023/06/19 17:44:12;;;;;;;3.13;2.10;;;;;;;28.24;40.27;99710.34;10387609;28;20131;-56
2023/06/19 17:49:14;;;;;;;2.37;2.17;;;;;;;28.23;39.82;99708.69;10382204;28;21871;-57
2023/06/19 17:54:18;;;;;;;3.95;2.40;;;;;;;28.23;40.52;99705.97;10383070;28;20123;-57
2023/06/19 17:59:20;;;;;;;4.22;3.03;;;;;;;28.18;40.26;99702.06;10378876;28;20145;-57
2023/06/19 18:04:23;;;;;;;3.00;2.70;;;;;;;28.15;40.39;99707.19;10379048;28;20055;-61
2023/06/19 18:09:25;;;;;;;3.47;2.40;;;;;;;28.14;40.61;99720.06;10388948;28;20527;-57
2023/06/19 18:14:27;;;;;;;3.50;2.30;;;;;;;28.10;40.35;99709.88;10353536;28;20061;-57
2023/06/19 18:19:28;;;;;;;3.60;2.53;;;;;;;28.08;40.81;99712.88;10373948;28;20049;-57
2023/06/19 18:24:30;;;;;;;4.50;2.95;;;;;;;28.07;40.45;99708.47;10378013;28;20153;-57
2023/06/19 18:29:34;;;;;;;3.83;2.85;;;;;;;28.04;40.54;99706.25;10378709;28;20045;-56
2023/06/19 18:34:35;;;;;;;3.05;2.45;;;;;;;28.02;41.23;99708.41;10372254;28;20055;-57
2023/06/19 18:39:37;;;;;;;3.00;2.70;;;;;;;27.99;40.96;99711.66;10377965;28;20057;-57
2023/06/19 18:44:38;;;;;;;5.82;2.65;;;;;;;27.97;41.09;99711.91;10370523;28;20321;-57
2023/06/19 18:49:40;;;;;;;2.55;2.35;;;;;;;27.93;40.83;99715.38;10383093;28;20081;-56
2023/06/19 18:54:41;;;;;;;3.00;2.75;;;;;;;27.90;41.12;99721.34;10381584;28;20058;-57
2023/06/19 18:59:43;;;;;;;3.20;2.90;;;;;;;27.82;41.79;99708.94;10381003;28;20468;-57
2023/06/19 19:04:45;;;;;;;2.95;2.47;;;;;;;27.82;41.82;99720.69;10375674;28;20405;-57
2023/06/19 19:09:46;;;;;;;3.22;2.75;;;;;;;27.82;42.18;99717.13;10392805;28;20059;-57
2023/06/19 19:14:47;;;;;;;3.60;3.00;;;;;;;27.78;41.95;99718.69;10384501;28;20053;-57
2023/06/19 19:19:49;;;;;;;3.63;2.40;;;;;;;27.76;42.34;99710.75;10392527;28;20053;-56
2023/06/19 19:24:50;;;;;;;3.70;2.47;;;;;;;27.76;42.69;99716.22;10381045;28;20045;-57
2023/06/19 19:29:52;;;;;;;3.77;3.03;;;;;;;27.74;42.58;99712.88;10381859;28;20102;-57
2023/06/19 19:34:55;;;;;;;3.50;3.20;;;;;;;27.69;42.88;99715.56;10371780;28;20060;-56
2023/06/19 19:39:58;;;;;;;5.80;3.20;;;;;;;27.66;42.64;99725.06;10387444;28;20053;-56
2023/06/19 19:45:00;;;;;;;5.13;3.10;;;;;;;27.64;43.13;99737.34;10382662;28;20703;-56
2023/06/19 19:50:04;;;;;;;3.80;3.50;;;;;;;27.60;43.22;99737.00;10389194;28;20937;-56
2023/06/19 19:55:06;;;;;;;4.10;3.15;;;;;;;27.59;43.15;99743.53;10392128;28;20079;-56
2023/06/19 20:00:09;;;;;;;5.32;3.40;;;;;;;27.57;43.29;99747.63;10392123;28;20142;-57
2023/06/19 20:05:10;;;;;;;4.53;4.07;;;;;;;27.55;43.73;99750.59;10390932;28;20558;-56
2023/06/19 20:10:12;;;;;;;4.53;3.63;;;;;;;27.54;44.17;99753.59;10374479;28;20693;-57
2023/06/19 20:15:14;;;;;;;7.78;6.90;;;;;;;27.54;43.85;99762.59;10385272;28;20136;-52
2023/06/19 20:20:16;;;;;;;6.40;5.80;;;;;;;27.50;43.96;99756.81;10388807;28;20658;-51
2023/06/19 20:25:17;;;;;;;5.25;4.50;;;;;;;27.46;44.04;99761.13;10387945;28;20103;-51
2023/06/19 20:30:19;;;;;;;4.65;4.20;;;;;;;27.42;44.55;99762.69;10386675;28;20830;-50
2023/06/19 20:35:20;;;;;;;4.65;4.25;;;;;;;27.38;44.40;99764.22;10378840;28;20524;-50
2023/06/19 20:40:24;;;;;;;5.13;4.18;;;;;;;27.32;45.08;99766.06;10384977;28;20132;-50
2023/06/19 20:45:26;;;;;;;7.05;4.38;;;;;;;27.31;45.62;99760.81;10388488;28;20084;-51
2023/06/19 20:50:28;;;;;;;4.55;4.15;;;;;;;27.27;45.69;99748.72;10387481;28;20053;-50
2023/06/19 20:55:29;;;;;;;4.90;4.50;;;;;;;27.20;45.50;99739.84;10387245;28;20442;-51
2023/06/19 21:00:31;;;;;;;4.25;3.90;;;;;;;27.15;45.85;99737.84;10390126;28;20049;-50
2023/06/19 21:05:33;;;;;;;6.68;4.22;;;;;;;27.10;45.95;99752.25;10388706;28;20052;-52
2023/06/19 21:10:34;;;;;;;4.18;3.72;;;;;;;27.05;46.06;99754.88;10384345;28;20878;-50
2023/06/19 21:15:36;;;;;;;4.10;3.63;;;;;;;27.00;46.55;99746.59;10386712;28;20046;-50
2023/06/19 21:20:38;;;;;;;6.20;3.58;;;;;;;26.95;46.50;99735.59;10384620;28;20064;-50
2023/06/19 21:25:39;;;;;;;5.57;3.55;;;;;;;26.91;46.75;99743.41;10387661;28;20144;-50
2023/06/19 21:30:41;;;;;;;5.63;3.55;;;;;;;26.80;46.63;99730.66;10384228;28;20051;-51
2023/06/19 21:35:42;;;;;;;3.97;3.67;;;;;;;26.86;46.90;99745.22;10380469;28;20147;-50
2023/06/19 21:40:44;;;;;;;5.18;3.83;;;;;;;26.80;46.73;99742.41;10386111;28;20481;-50
2023/06/19 21:45:45;;;;;;;4.25;3.67;;;;;;;26.74;47.23;99746.09;10380116;28;20397;-51
2023/06/19 21:50:47;;;;;;;4.27;3.87;;;;;;;26.72;46.83;99745.53;10380124;28;20049;-51
2023/06/19 21:55:49;;;;;;;4.75;3.88;;;;;;;26.66;46.84;99735.53;10383955;28;20053;-50
2023/06/19 22:00:50;;;;;;;4.00;3.60;;;;;;;26.63;47.13;99733.28;10381143;28;20055;-50
2023/06/19 22:05:51;;;;;;;5.03;3.90;;;;;;;26.61;47.41;99735.44;10386378;28;20141;-51
2023/06/19 22:10:53;;;;;;;4.03;3.70;;;;;;;26.58;47.17;99738.66;10388789;28;20057;-56
2023/06/19 22:15:55;;;;;;;4.30;3.33;;;;;;;26.54;47.38;99737.47;10385131;28;20157;-51
2023/06/19 22:20:57;;;;;;;4.63;3.70;;;;;;;26.51;47.41;99732.50;10394489;28;22993;-51
2023/06/19 22:25:58;;;;;;;4.00;3.60;;;;;;;26.50;47.52;99731.69;10393454;28;20148;-51
2023/06/19 22:30:59;;;;;;;4.30;3.63;;;;;;;26.48;47.85;99722.06;10385108;28;20568;-51
2023/06/19 22:36:01;;;;;;;4.15;3.67;;;;;;;26.42;47.85;99716.50;10389962;28;20053;-51
2023/06/19 22:41:02;;;;;;;4.35;3.75;;;;;;;26.39;47.87;99719.72;10387513;28;20094;-51
2023/06/19 22:46:04;;;;;;;4.53;3.63;;;;;;;26.36;48.25;99725.66;10396565;28;20386;-51
2023/06/19 22:51:05;;;;;;;5.15;3.65;;;;;;;26.33;48.73;99709.75;10393068;28;20065;-51
2023/06/19 22:56:07;;;;;;;4.38;3.97;;;;;;;26.31;48.52;99711.09;10392124;28;20061;-51
2023/06/19 23:01:12;;;;;;;4.43;3.80;;;;;;;26.27;48.72;99700.66;10388096;28;20057;-51
2023/06/19 23:06:13;;;;;;;5.53;3.67;;;;;;;26.22;48.57;99702.44;10391937;28;20134;-51
2023/06/19 23:11:16;;;;;;;4.28;3.63;;;;;;;26.19;49.21;99697.47;10394417;28;20132;-51
2023/06/19 23:16:18;;;;;;;4.10;3.80;;;;;;;26.14;49.02;99691.88;10390263;28;20450;-51
2023/06/19 23:21:19;;;;;;;5.13;3.97;;;;;;;26.11;49.36;99688.56;10393473;28;20057;-51